Terminal Aerodrome Forecast
Issued by NWS

Home | Current Version | Previous Version | Graphics & Text | Print | Product List | Glossary Off
Versions: 1 2 3 4 5 6 7 8 9 10 11 12 13 14 15 16 17

000
FTUS43 KDDC 161700
TAFGCK
TAF
KGCK 161720Z 1618/1718 36020G27KT P6SM SCT250
     FM170000 03012KT P6SM SCT250
     FM170500 04010KT P6SM OVC100
     FM171700 10010KT P6SM SCT100=

USA.gov is the U.S. government's official web portal to all federal, state and local government web resources and services.